Time;durP1;ratioP1;P1;durP2;ratioP2;P2;SDS_P1;SDS_P2;PMS_P1;PMS_P2;Temp;Humidity;BMP_temperature;BMP_pressure;BME280_temperature;BME280_humidity;BME280_pressure;Samples;Min_cycle;Max_cycle;Signal;HPM_P1;HPM_P2
2021/03/19 00:00:42;;;;;;;18.30;13.00;;;5.20;99.90;;;;;;5034820;28;20208;-71
2021/03/19 00:03:07;;;;;;;16.80;12.90;;;5.20;99.90;;;;;;5033964;28;20220;-71
2021/03/19 00:05:33;;;;;;;16.30;13.50;;;5.20;99.90;;;;;;5035260;28;20425;-71
2021/03/19 00:07:59;;;;;;;14.10;12.30;;;5.30;99.90;;;;;;5035646;28;20187;-70
2021/03/19 00:10:27;;;;;;;18.70;13.27;;;5.20;99.90;;;;;;5034355;28;20201;-70
2021/03/19 00:12:54;;;;;;;17.50;12.57;;;5.20;99.90;;;;;;5035396;28;20199;-71
2021/03/19 00:15:24;;;;;;;17.00;12.43;;;5.20;99.90;;;;;;5033341;28;20405;-71
2021/03/19 00:17:50;;;;;;;15.30;12.77;;;5.20;99.90;;;;;;5034848;28;20413;-70
2021/03/19 00:20:16;;;;;;;14.70;12.23;;;5.10;99.90;;;;;;5034948;28;20450;-71
2021/03/19 00:22:42;;;;;;;15.83;12.70;;;5.00;99.90;;;;;;5034954;28;20414;-71
2021/03/19 00:25:10;;;;;;;16.87;12.30;;;5.00;99.90;;;;;;5033239;28;20777;-71
2021/03/19 00:27:35;;;;;;;16.30;13.67;;;5.00;99.90;;;;;;5035075;28;20408;-70
2021/03/19 00:30:03;;;;;;;19.40;15.23;;;4.90;99.90;;;;;;5033958;28;20987;-71
2021/03/19 00:32:28;;;;;;;17.73;14.47;;;4.80;99.90;;;;;;5035138;28;20205;-71
2021/03/19 00:34:54;;;;;;;17.90;14.63;;;4.80;99.90;;;;;;5029823;28;20416;-71
2021/03/19 00:37:19;;;;;;;17.83;14.70;;;4.90;99.90;;;;;;5014752;28;20178;-69
2021/03/19 00:39:45;;;;;;;21.00;15.20;;;4.80;99.90;;;;;;5014808;28;20197;-69
2021/03/19 00:42:11;;;;;;;19.40;15.20;;;4.70;99.90;;;;;;5014906;28;20202;-69
2021/03/19 00:44:38;;;;;;;17.17;14.70;;;4.70;99.90;;;;;;5014799;28;20252;-69
2021/03/19 00:47:04;;;;;;;18.37;14.67;;;4.70;99.90;;;;;;5015955;28;20631;-70
2021/03/19 00:49:30;;;;;;;25.40;17.13;;;4.50;99.90;;;;;;5013103;28;20415;-70
2021/03/19 00:51:55;;;;;;;20.70;15.23;;;4.40;99.90;;;;;;5014695;28;20471;-69
2021/03/19 00:54:21;;;;;;;19.43;15.00;;;4.40;99.90;;;;;;5015119;28;20405;-71
2021/03/19 00:56:46;;;;;;;21.10;15.47;;;4.40;99.90;;;;;;5015582;28;20179;-70
2021/03/19 00:59:12;;;;;;;19.17;15.53;;;4.40;99.90;;;;;;5013248;28;20744;-71
2021/03/19 01:01:38;;;;;;;20.03;14.50;;;4.40;99.90;;;;;;5014158;28;20706;-70
2021/03/19 01:04:04;;;;;;;20.90;16.20;;;4.40;99.90;;;;;;5014458;28;20179;-70
2021/03/19 01:06:30;;;;;;;22.53;15.77;;;4.40;99.90;;;;;;5015647;28;20183;-70
2021/03/19 01:08:56;;;;;;;21.60;15.20;;;4.40;99.90;;;;;;5014167;28;20420;-70
2021/03/19 01:11:22;;;;;;;21.00;16.53;;;4.40;99.90;;;;;;5014303;28;20587;-70
2021/03/19 01:13:48;;;;;;;20.80;16.43;;;4.40;99.90;;;;;;5013596;28;20425;-70
2021/03/19 01:16:13;;;;;;;20.20;15.90;;;4.40;99.90;;;;;;5014598;28;20181;-70
2021/03/19 01:18:39;;;;;;;22.30;16.00;;;4.50;99.90;;;;;;5014780;28;20181;-70
2021/03/19 01:21:05;;;;;;;21.20;15.80;;;4.50;99.90;;;;;;5013911;28;20223;-70
2021/03/19 01:23:30;;;;;;;21.37;16.17;;;4.50;99.90;;;;;;5014694;28;20174;-70
2021/03/19 01:25:56;;;;;;;17.97;15.27;;;4.60;99.90;;;;;;5014691;28;20169;-70
2021/03/19 01:28:21;;;;;;;19.80;15.73;;;4.60;99.90;;;;;;5016906;28;20179;-70
2021/03/19 01:30:48;;;;;;;20.33;16.37;;;4.60;99.90;;;;;;5034369;28;20199;-70
2021/03/19 01:33:14;;;;;;;21.63;15.83;;;4.60;99.90;;;;;;5033978;28;20193;-70
2021/03/19 01:35:41;;;;;;;25.17;16.40;;;4.60;99.90;;;;;;5033661;28;20407;-70
2021/03/19 01:38:09;;;;;;;21.30;15.77;;;4.60;99.90;;;;;;5033718;28;20447;-70
2021/03/19 01:40:43;;;;;;;20.43;16.33;;;4.50;99.90;;;;;;5031699;28;20535;-70
2021/03/19 01:43:30;;;;;;;18.83;15.00;;;4.50;99.90;;;;;;5033572;28;20402;-70
2021/03/19 01:46:04;;;;;;;21.70;15.07;;;4.40;99.90;;;;;;5033739;28;20412;-70
2021/03/19 01:49:07;;;;;;;18.53;14.10;;;4.50;99.90;;;;;;5033423;28;20413;-70
2021/03/19 01:52:10;;;;;;;17.30;13.73;;;4.40;99.90;;;;;;5031139;28;20464;-70
2021/03/19 01:55:13;;;;;;;19.53;14.10;;;4.50;99.90;;;;;;5033492;28;20397;-70
2021/03/19 01:58:16;;;;;;;18.20;13.63;;;4.50;99.90;;;;;;5033565;28;20403;-69
2021/03/19 02:01:29;;;;;;;22.10;15.20;;;4.40;99.90;;;;;;5031775;28;20441;-69
2021/03/19 02:04:32;;;;;;;21.00;14.67;;;4.40;99.90;;;;;;4987939;28;20427;-70
2021/03/19 02:07:35;;;;;;;15.13;13.43;;;4.40;99.90;;;;;;5036399;28;20490;-69
2021/03/19 02:10:38;;;;;;;17.73;12.93;;;4.40;99.90;;;;;;5041130;28;20494;-70
2021/03/19 02:13:41;;;;;;;18.67;14.13;;;4.40;99.90;;;;;;5001480;28;20417;-70
2021/03/19 02:16:46;;;;;;;20.77;15.10;;;4.30;99.90;;;;;;4996870;28;20761;-70
2021/03/19 02:19:48;;;;;;;20.40;13.53;;;4.30;99.90;;;;;;4971727;28;20507;-70
2021/03/19 02:22:51;;;;;;;20.90;15.17;;;4.20;99.90;;;;;;5006968;28;20420;-69
2021/03/19 02:25:54;;;;;;;21.87;15.50;;;4.20;99.90;;;;;;5015727;28;20465;-69
2021/03/19 02:28:57;;;;;;;24.17;16.17;;;4.10;99.90;;;;;;5013383;28;20444;-70
2021/03/19 02:32:01;;;;;;;20.37;14.70;;;4.00;99.90;;;;;;5012014;28;20488;-69
2021/03/19 02:34:48;;;;;;;20.70;14.70;;;3.90;99.90;;;;;;4992287;28;20447;-69
2021/03/19 02:37:18;;;;;;;22.23;16.03;;;3.90;99.90;;;;;;4991806;28;20422;-69
2021/03/19 02:39:44;;;;;;;23.83;16.07;;;3.90;99.90;;;;;;4991402;28;20444;-69
2021/03/19 02:42:12;;;;;;;21.67;15.27;;;3.90;99.90;;;;;;4991696;28;20436;-69
2021/03/19 02:44:38;;;;;;;21.97;16.90;;;4.00;99.90;;;;;;4992999;28;20194;-69
2021/03/19 02:47:04;;;;;;;23.30;16.83;;;4.00;99.90;;;;;;4975346;28;20416;-70
2021/03/19 02:49:30;;;;;;;23.27;17.03;;;4.10;99.90;;;;;;4991347;28;20416;-70
2021/03/19 02:51:56;;;;;;;23.80;16.13;;;4.10;99.90;;;;;;4991846;28;20778;-70
2021/03/19 02:54:22;;;;;;;24.03;17.63;;;4.10;99.90;;;;;;4995605;28;20533;-70
2021/03/19 02:56:48;;;;;;;22.80;16.83;;;4.10;99.90;;;;;;4995340;28;20270;-70
2021/03/19 02:59:14;;;;;;;23.70;17.20;;;4.20;99.90;;;;;;4995150;28;20799;-70
2021/03/19 03:01:39;;;;;;;24.27;17.37;;;4.10;99.90;;;;;;4995567;28;20244;-70
2021/03/19 03:04:05;;;;;;;26.70;18.60;;;4.00;99.90;;;;;;4998280;28;20429;-70
2021/03/19 03:06:47;;;;;;;25.70;17.60;;;4.10;99.90;;;;;;5016649;28;20198;-71
2021/03/19 03:09:17;;;;;;;22.93;16.53;;;4.10;99.90;;;;;;5016590;28;20474;-71
2021/03/19 03:11:43;;;;;;;24.23;15.93;;;4.20;99.90;;;;;;5016212;28;20468;-70
2021/03/19 03:14:13;;;;;;;24.80;18.00;;;4.10;99.90;;;;;;5017073;28;20492;-74
2021/03/19 03:16:40;;;;;;;23.47;16.13;;;4.10;99.90;;;;;;5016660;28;20462;-71
2021/03/19 03:19:08;;;;;;;24.30;16.30;;;4.20;99.90;;;;;;5015992;28;20417;-70
2021/03/19 03:21:34;;;;;;;21.93;15.90;;;4.30;99.90;;;;;;5016104;28;20448;-71
2021/03/19 03:24:01;;;;;;;25.37;17.37;;;4.40;99.90;;;;;;5015283;28;20426;-70
2021/03/19 03:26:27;;;;;;;26.10;17.73;;;4.50;99.90;;;;;;5017677;28;20827;-70
2021/03/19 03:28:53;;;;;;;21.73;15.73;;;4.40;99.90;;;;;;5015897;28;20856;-70
2021/03/19 03:31:18;;;;;;;26.83;17.47;;;4.30;99.90;;;;;;5016637;28;20491;-70
2021/03/19 03:33:44;;;;;;;24.47;17.90;;;4.10;99.90;;;;;;5016105;28;20240;-70
2021/03/19 03:36:09;;;;;;;23.30;16.63;;;4.20;99.90;;;;;;5016033;28;20191;-70
2021/03/19 03:38:35;;;;;;;27.63;18.23;;;4.10;99.90;;;;;;5015840;28;20252;-70
2021/03/19 03:41:05;;;;;;;25.20;17.97;;;4.10;99.90;;;;;;5015888;28;20263;-70
2021/03/19 03:43:31;;;;;;;26.80;19.13;;;4.20;99.90;;;;;;5016108;28;20408;-70
2021/03/19 03:45:57;;;;;;;24.77;17.60;;;4.20;99.90;;;;;;5016503;28;20450;-70
2021/03/19 03:48:25;;;;;;;27.20;18.17;;;4.30;99.90;;;;;;5017066;28;20428;-71
2021/03/19 03:50:51;;;;;;;26.90;19.57;;;4.40;99.90;;;;;;5015736;28;20213;-70
2021/03/19 03:53:17;;;;;;;26.23;19.33;;;4.40;99.90;;;;;;5016158;28;20401;-71
2021/03/19 03:55:43;;;;;;;33.00;22.17;;;4.30;99.90;;;;;;5016157;28;20167;-70
2021/03/19 03:58:11;;;;;;;32.20;22.30;;;4.10;99.90;;;;;;5016538;28;20426;-70
2021/03/19 04:00:37;;;;;;;34.33;22.63;;;4.00;99.90;;;;;;5015530;28;20429;-70
2021/03/19 04:03:04;;;;;;;41.93;26.07;;;4.10;99.90;;;;;;5016033;28;20465;-70
2021/03/19 04:05:36;;;;;;;38.63;26.37;;;4.10;99.90;;;;;;5014900;28;20411;-70
2021/03/19 04:08:02;;;;;;;39.30;27.93;;;3.90;99.90;;;;;;5016449;28;20434;-70
2021/03/19 04:10:28;;;;;;;43.67;29.37;;;4.00;99.90;;;;;;5014590;28;20487;-70
2021/03/19 04:12:54;;;;;;;40.43;27.70;;;3.90;99.90;;;;;;5016069;28;20483;-70
2021/03/19 04:15:21;;;;;;;42.30;29.37;;;4.00;99.90;;;;;;5016370;28;20399;-70
2021/03/19 04:17:48;;;;;;;39.10;27.43;;;4.10;99.90;;;;;;5015452;28;20404;-70
2021/03/19 04:20:16;;;;;;;41.03;27.63;;;4.20;99.90;;;;;;5016557;28;20502;-71
2021/03/19 04:22:42;;;;;;;35.13;24.07;;;4.20;99.90;;;;;;5015712;28;20444;-70
2021/03/19 04:25:09;;;;;;;38.03;25.60;;;4.20;99.90;;;;;;5015785;28;20405;-70
2021/03/19 04:27:39;;;;;;;36.50;26.03;;;4.00;99.90;;;;;;5015438;28;20178;-70
2021/03/19 04:30:05;;;;;;;32.77;24.07;;;4.00;99.90;;;;;;5025543;28;20514;-69
2021/03/19 04:32:31;;;;;;;35.20;24.67;;;4.00;99.90;;;;;;5016335;28;20446;-70
2021/03/19 04:34:56;;;;;;;34.60;24.77;;;4.10;99.90;;;;;;5015480;28;20702;-70
2021/03/19 04:37:22;;;;;;;35.17;24.20;;;4.00;99.90;;;;;;5015626;28;20615;-70
2021/03/19 04:39:49;;;;;;;31.30;22.73;;;4.00;99.90;;;;;;5015839;28;20195;-70
2021/03/19 04:42:15;;;;;;;31.27;23.83;;;3.90;99.90;;;;;;5014791;28;20177;-69
2021/03/19 04:44:47;;;;;;;30.33;22.90;;;3.90;99.90;;;;;;5014549;28;20522;-69
2021/03/19 04:47:13;;;;;;;29.10;22.37;;;3.90;99.90;;;;;;5014969;28;20417;-70
2021/03/19 04:49:39;;;;;;;29.83;21.30;;;3.90;99.90;;;;;;5015024;28;20803;-70
2021/03/19 04:52:05;;;;;;;26.10;20.37;;;4.00;99.90;;;;;;5010025;28;20453;-70
2021/03/19 04:54:31;;;;;;;27.67;20.57;;;4.10;99.90;;;;;;5001355;28;20182;-69
2021/03/19 04:56:57;;;;;;;25.00;18.87;;;3.90;99.90;;;;;;5006034;28;20598;-69
2021/03/19 04:59:23;;;;;;;26.07;19.37;;;3.80;99.90;;;;;;5001360;28;20417;-70
2021/03/19 05:01:57;;;;;;;28.33;19.30;;;3.80;99.90;;;;;;5005818;28;20444;-70
2021/03/19 05:04:24;;;;;;;25.17;17.97;;;3.90;99.90;;;;;;5015012;28;20190;-69
2021/03/19 05:06:52;;;;;;;27.33;17.63;;;4.00;99.90;;;;;;5015178;28;20978;-70
2021/03/19 05:09:18;;;;;;;26.83;19.00;;;4.10;99.90;;;;;;5014211;28;20448;-69
2021/03/19 05:11:44;;;;;;;26.83;18.43;;;4.10;99.90;;;;;;5009887;28;21040;-71
2021/03/19 05:14:09;;;;;;;24.23;17.17;;;4.10;99.90;;;;;;5003294;28;20316;-70
2021/03/19 05:16:35;;;;;;;26.00;17.90;;;4.00;99.90;;;;;;4994368;28;20451;-70
2021/03/19 05:19:00;;;;;;;23.80;16.17;;;4.00;99.90;;;;;;4993246;28;20183;-70
2021/03/19 05:21:26;;;;;;;25.83;17.90;;;3.90;99.90;;;;;;4993840;28;20208;-71
2021/03/19 05:23:52;;;;;;;25.40;18.60;;;3.90;99.90;;;;;;5007566;28;20190;-69
2021/03/19 05:26:17;;;;;;;27.50;17.77;;;3.80;99.90;;;;;;5003626;28;20190;-70
2021/03/19 05:28:43;;;;;;;23.97;17.80;;;3.90;99.90;;;;;;5001250;28;20192;-69
2021/03/19 05:31:09;;;;;;;25.27;17.90;;;3.90;99.90;;;;;;5006587;28;20220;-70
2021/03/19 05:33:49;;;;;;;27.97;18.60;;;4.00;99.90;;;;;;5003948;28;20625;-70
2021/03/19 05:36:17;;;;;;;28.80;18.67;;;4.10;99.90;;;;;;5014482;28;20584;-71
2021/03/19 05:38:43;;;;;;;28.80;17.57;;;4.00;99.90;;;;;;5000020;28;20427;-70
2021/03/19 05:41:10;;;;;;;25.53;18.30;;;3.80;99.90;;;;;;5003573;28;20474;-72
2021/03/19 05:43:46;;;;;;;26.63;17.80;;;3.80;99.90;;;;;;5015914;28;20208;-72
2021/03/19 05:46:15;;;;;;;25.20;18.33;;;3.80;99.90;;;;;;4995472;28;20441;-70
2021/03/19 05:49:09;;;;;;;25.53;17.13;;;3.80;99.90;;;;;;4995035;28;20408;-69
2021/03/19 05:51:38;;;;;;;26.27;19.33;;;3.80;99.90;;;;;;4988811;28;20478;-70
2021/03/19 05:54:28;;;;;;;27.00;17.17;;;3.80;99.90;;;;;;4993217;28;20448;-69
2021/03/19 05:57:08;;;;;;;31.47;19.20;;;3.60;99.90;;;;;;4994614;28;20410;-70
2021/03/19 05:59:35;;;;;;;27.70;19.00;;;3.60;99.90;;;;;;4995176;28;20861;-69
2021/03/19 06:02:02;;;;;;;27.10;17.70;;;3.50;99.90;;;;;;4995770;28;20421;-68
2021/03/19 06:04:30;;;;;;;27.93;18.60;;;3.50;99.90;;;;;;4995749;28;20404;-70
2021/03/19 06:07:03;;;;;;;24.80;17.80;;;3.60;99.90;;;;;;4995246;28;20408;-69
2021/03/19 06:09:31;;;;;;;29.30;19.07;;;3.50;99.90;;;;;;4994091;28;20408;-69
2021/03/19 06:12:04;;;;;;;26.47;18.27;;;3.60;99.90;;;;;;4994387;28;20486;-70
2021/03/19 06:14:39;;;;;;;29.43;18.67;;;3.50;99.90;;;;;;4995267;28;20417;-70
2021/03/19 06:17:10;;;;;;;27.13;19.23;;;3.50;99.90;;;;;;5009648;28;20444;-70
2021/03/19 06:19:56;;;;;;;31.63;18.90;;;3.50;99.90;;;;;;4995228;28;20437;-69
2021/03/19 06:22:35;;;;;;;28.60;18.60;;;3.60;99.90;;;;;;5014175;28;20426;-70
2021/03/19 06:25:20;;;;;;;23.77;17.13;;;3.70;99.90;;;;;;5012896;28;20477;-70
2021/03/19 06:27:48;;;;;;;27.43;17.87;;;3.70;99.90;;;;;;5012900;28;20563;-71
2021/03/19 06:30:42;;;;;;;23.20;18.07;;;3.50;99.90;;;;;;5017214;28;20455;-70
2021/03/19 06:33:14;;;;;;;29.23;17.77;;;3.50;99.90;;;;;;5017590;28;20465;-71
2021/03/19 06:36:06;;;;;;;23.37;17.77;;;3.50;99.90;;;;;;5017708;28;20422;-70
2021/03/19 06:38:36;;;;;;;21.53;16.00;;;3.40;99.90;;;;;;5016743;28;20430;-70
2021/03/19 06:41:25;;;;;;;24.40;16.97;;;3.50;99.90;;;;;;5017096;28;20486;-70
2021/03/19 06:43:52;;;;;;;22.20;16.33;;;3.50;99.90;;;;;;5017191;28;20484;-70
2021/03/19 06:46:33;;;;;;;25.73;16.07;;;3.60;99.90;;;;;;5017068;28;20422;-69
2021/03/19 06:49:01;;;;;;;21.73;16.17;;;3.60;99.90;;;;;;5016519;28;20901;-71
2021/03/19 06:51:37;;;;;;;18.57;14.47;;;3.50;99.90;;;;;;5016471;28;20474;-71
2021/03/19 06:54:08;;;;;;;20.43;14.80;;;3.40;99.90;;;;;;5013466;28;20416;-70
2021/03/19 06:56:35;;;;;;;23.63;16.70;;;3.50;99.90;;;;;;5014955;28;20494;-69
2021/03/19 06:59:25;;;;;;;24.13;15.73;;;3.40;99.90;;;;;;5014449;28;20970;-72
2021/03/19 07:01:51;;;;;;;27.40;17.63;;;3.40;99.90;;;;;;5015214;28;20916;-70
2021/03/19 07:04:36;;;;;;;21.20;15.40;;;3.30;99.90;;;;;;5014892;28;20557;-70
2021/03/19 07:07:12;;;;;;;20.77;16.03;;;3.20;99.90;;;;;;5015108;28;20409;-69
2021/03/19 07:10:02;;;;;;;20.50;14.67;;;3.20;99.90;;;;;;5016704;28;20408;-70
2021/03/19 07:12:51;;;;;;;20.80;15.67;;;3.40;99.90;;;;;;5016921;28;20725;-70
2021/03/19 07:15:19;;;;;;;23.13;15.20;;;3.50;99.90;;;;;;5016944;28;20419;-70
2021/03/19 07:17:55;;;;;;;21.67;16.47;;;3.50;99.90;;;;;;5015890;28;20407;-70
2021/03/19 07:20:40;;;;;;;21.00;16.47;;;3.50;99.90;;;;;;5016669;28;20925;-71
2021/03/19 07:23:25;;;;;;;21.03;16.00;;;3.50;99.90;;;;;;5017297;28;20481;-69
2021/03/19 07:25:57;;;;;;;20.80;16.03;;;3.40;99.90;;;;;;5017686;28;20459;-69
2021/03/19 07:28:43;;;;;;;19.77;16.10;;;3.30;99.90;;;;;;5016078;28;20454;-70
2021/03/19 07:31:38;;;;;;;20.40;16.83;;;3.20;99.90;;;;;;5016903;28;20458;-70
2021/03/19 07:34:55;;;;;;;19.80;15.40;;;3.40;99.90;;;;;;5017767;28;20823;-70
2021/03/19 07:37:53;;;;;;;18.97;15.67;;;3.40;99.90;;;;;;4983311;28;20760;-69
2021/03/19 07:40:56;;;;;;;22.93;16.10;;;3.30;99.90;;;;;;5014175;28;20455;-70
2021/03/19 07:43:43;;;;;;;20.80;15.63;;;3.40;99.90;;;;;;5016214;28;20403;-70
2021/03/19 07:46:32;;;;;;;16.83;14.07;;;3.50;99.90;;;;;;5016285;28;20494;-70
2021/03/19 07:49:33;;;;;;;18.67;14.80;;;3.50;99.90;;;;;;5016103;28;20495;-71
2021/03/19 07:51:58;;;;;;;21.40;14.20;;;3.60;99.90;;;;;;5016026;28;20527;-69
2021/03/19 07:54:51;;;;;;;16.17;14.37;;;3.60;99.90;;;;;;5016765;28;20424;-69
2021/03/19 07:57:30;;;;;;;17.87;15.07;;;3.70;99.90;;;;;;5016468;28;20182;-69
2021/03/19 08:00:20;;;;;;;18.20;15.10;;;3.60;99.90;;;;;;5015642;28;20430;-69
2021/03/19 08:03:03;;;;;;;19.37;14.00;;;3.50;99.90;;;;;;5016984;28;20394;-69
2021/03/19 08:05:38;;;;;;;19.73;13.73;;;3.60;99.90;;;;;;5016513;28;20430;-68
2021/03/19 08:08:15;;;;;;;20.63;15.77;;;3.70;99.90;;;;;;5016120;28;20418;-69
2021/03/19 08:11:12;;;;;;;16.67;13.40;;;3.70;99.90;;;;;;5016136;28;20446;-69
2021/03/19 08:13:51;;;;;;;19.40;14.40;;;3.60;99.90;;;;;;5016570;28;20395;-69
2021/03/19 08:16:29;;;;;;;19.33;13.77;;;3.40;99.90;;;;;;5016052;28;20450;-69
2021/03/19 08:19:07;;;;;;;16.00;13.87;;;3.30;99.90;;;;;;5016006;28;20732;-69
2021/03/19 08:21:44;;;;;;;16.13;13.17;;;3.20;99.90;;;;;;5016220;28;20509;-70
2021/03/19 08:24:23;;;;;;;16.77;13.97;;;3.10;99.90;;;;;;5016064;28;20406;-70
2021/03/19 08:27:26;;;;;;;19.60;14.20;;;3.20;99.90;;;;;;5015429;28;20426;-70
2021/03/19 08:30:23;;;;;;;17.97;12.87;;;3.30;99.90;;;;;;5014158;28;20469;-69
2021/03/19 08:33:12;;;;;;;14.80;12.63;;;3.40;99.90;;;;;;5016235;28;20752;-70
2021/03/19 08:35:58;;;;;;;12.57;10.73;;;3.50;99.90;;;;;;5014109;28;20479;-69
2021/03/19 08:38:40;;;;;;;13.60;11.60;;;3.50;99.90;;;;;;5015674;28;20406;-69
2021/03/19 08:41:10;;;;;;;11.87;10.63;;;3.40;99.90;;;;;;5015064;28;20872;-70
2021/03/19 08:43:44;;;;;;;11.43;10.03;;;3.30;99.90;;;;;;5013707;28;20515;-69
2021/03/19 08:46:31;;;;;;;14.47;11.00;;;3.10;99.90;;;;;;5015150;28;20423;-70
2021/03/19 08:49:01;;;;;;;13.10;10.63;;;3.20;99.90;;;;;;5014654;28;20413;-69
2021/03/19 08:51:26;;;;;;;12.93;10.87;;;3.30;99.90;;;;;;5014594;28;20474;-68
2021/03/19 08:54:17;;;;;;;10.37;9.20;;;3.40;99.90;;;;;;5014075;28;20815;-70
2021/03/19 08:57:01;;;;;;;14.00;10.17;;;3.70;99.90;;;;;;5015013;28;20512;-70
2021/03/19 08:59:36;;;;;;;11.93;10.07;;;4.00;99.90;;;;;;5014217;28;20442;-71
2021/03/19 09:02:05;;;;;;;13.37;9.77;;;4.20;99.90;;;;;;5015270;28;20419;-71
2021/03/19 09:04:52;;;;;;;10.47;8.43;;;4.40;99.90;;;;;;5014816;28;20451;-70
2021/03/19 09:07:38;;;;;;;11.43;8.87;;;4.40;99.90;;;;;;5014805;28;20467;-70
2021/03/19 09:10:17;;;;;;;12.40;9.07;;;4.40;99.90;;;;;;5014697;28;20936;-70
2021/03/19 09:12:55;;;;;;;13.03;9.43;;;4.40;99.90;;;;;;5014640;28;20475;-71
2021/03/19 09:15:20;;;;;;;9.13;8.10;;;4.60;99.90;;;;;;5014586;28;20401;-70
2021/03/19 09:17:51;;;;;;;13.47;8.23;;;4.60;99.90;;;;;;5014210;28;20396;-70
2021/03/19 09:20:40;;;;;;;10.20;8.50;;;4.70;99.90;;;;;;5014524;28;20271;-70
2021/03/19 09:23:09;;;;;;;9.33;7.90;;;4.90;99.90;;;;;;5014602;28;20986;-70
2021/03/19 09:26:03;;;;;;;9.10;8.20;;;5.00;99.90;;;;;;5014279;28;20414;-70
2021/03/19 09:28:39;;;;;;;8.93;8.00;;;5.00;99.90;;;;;;5014025;28;20406;-70
2021/03/19 09:31:07;;;;;;;8.87;7.63;;;5.00;99.90;;;;;;5014275;28;20544;-69
2021/03/19 09:33:45;;;;;;;10.30;7.30;;;5.00;99.90;;;;;;5014690;28;20405;-70
2021/03/19 09:36:48;;;;;;;7.40;6.67;;;5.00;99.90;;;;;;5014191;28;20513;-70
2021/03/19 09:39:45;;;;;;;7.73;7.03;;;5.00;99.90;;;;;;5014080;28;20413;-69
2021/03/19 09:42:20;;;;;;;8.20;7.00;;;5.10;99.90;;;;;;5008547;28;20437;-70
2021/03/19 09:45:01;;;;;;;8.37;7.23;;;5.20;99.90;;;;;;5014460;28;20404;-70
2021/03/19 09:47:33;;;;;;;6.80;5.90;;;5.20;99.50;;;;;;5014050;28;20399;-70
2021/03/19 09:50:31;;;;;;;10.40;6.63;;;5.30;99.60;;;;;;5011881;28;20431;-71
2021/03/19 09:53:07;;;;;;;7.57;6.10;;;5.40;99.30;;;;;;5014287;28;20417;-70
2021/03/19 09:55:42;;;;;;;6.50;5.70;;;5.60;98.70;;;;;;5014036;28;20395;-70
2021/03/19 09:58:42;;;;;;;6.50;5.47;;;5.70;98.50;;;;;;5013762;28;20394;-70
2021/03/19 10:01:10;;;;;;;5.70;4.90;;;5.70;97.20;;;;;;5008007;28;20839;-70
2021/03/19 10:03:45;;;;;;;6.33;5.73;;;5.90;97.10;;;;;;5015578;28;20446;-70
2021/03/19 10:06:25;;;;;;;6.37;5.10;;;6.00;97.20;;;;;;5018169;28;20520;-70
2021/03/19 10:08:50;;;;;;;8.00;4.83;;;6.00;97.10;;;;;;5017237;28;20429;-71
2021/03/19 10:11:17;;;;;;;5.70;4.97;;;6.20;97.20;;;;;;5016184;28;20998;-70
2021/03/19 10:13:44;;;;;;;5.60;4.60;;;6.10;96.10;;;;;;5017530;28;20164;-70
2021/03/19 10:16:21;;;;;;;4.90;4.40;;;6.10;96.30;;;;;;5017348;28;20529;-71
2021/03/19 10:18:47;;;;;;;6.17;4.60;;;6.30;96.60;;;;;;5017398;28;20438;-70
2021/03/19 10:21:19;;;;;;;6.77;4.50;;;6.20;95.60;;;;;;5017829;28;20501;-71
2021/03/19 10:23:58;;;;;;;5.10;4.60;;;6.20;95.30;;;;;;5017693;28;20418;-70
2021/03/19 10:26:28;;;;;;;8.97;4.50;;;6.20;95.00;;;;;;5017329;28;20413;-71
2021/03/19 10:29:17;;;;;;;6.53;4.40;;;6.40;95.10;;;;;;5017153;28;20504;-70
2021/03/19 10:31:57;;;;;;;4.17;3.80;;;6.50;95.10;;;;;;5017630;28;20450;-71
2021/03/19 10:34:49;;;;;;;4.43;4.03;;;6.50;94.40;;;;;;5018257;28;20504;-71
2021/03/19 10:37:37;;;;;;;7.53;3.73;;;6.60;94.00;;;;;;5017682;28;20423;-70
2021/03/19 10:40:14;;;;;;;7.07;4.77;;;6.50;93.90;;;;;;5017296;28;20428;-71
2021/03/19 10:42:54;;;;;;;4.80;4.20;;;6.50;93.80;;;;;;5016676;28;20461;-70
2021/03/19 10:45:37;;;;;;;4.20;3.80;;;6.40;93.60;;;;;;5016875;28;20406;-70
2021/03/19 10:48:38;;;;;;;4.30;3.40;;;6.50;93.90;;;;;;5017029;28;20419;-70
2021/03/19 10:51:11;;;;;;;3.90;3.60;;;6.50;93.70;;;;;;4975465;28;21067;-71
2021/03/19 10:54:02;;;;;;;4.00;3.70;;;6.50;93.90;;;;;;4976043;28;20417;-70
2021/03/19 10:56:28;;;;;;;4.57;3.50;;;6.60;94.10;;;;;;4976257;28;20540;-70
2021/03/19 10:59:11;;;;;;;4.50;3.20;;;6.80;93.70;;;;;;4975941;28;20429;-70
2021/03/19 11:01:44;;;;;;;3.80;3.30;;;6.80;92.30;;;;;;4975398;28;20785;-70
2021/03/19 11:04:33;;;;;;;3.17;2.80;;;6.60;92.40;;;;;;4975709;28;20782;-70
2021/03/19 11:07:19;;;;;;;3.40;3.20;;;6.70;92.60;;;;;;4976030;28;20426;-70
2021/03/19 11:10:10;;;;;;;2.67;2.43;;;6.80;92.60;;;;;;4961718;28;20444;-71
2021/03/19 11:12:57;;;;;;;3.40;3.10;;;7.10;92.60;;;;;;4975717;28;20415;-70
2021/03/19 11:15:32;;;;;;;3.53;2.90;;;7.50;92.20;;;;;;4975112;28;20420;-70
2021/03/19 11:18:38;;;;;;;2.97;2.70;;;7.70;91.40;;;;;;4975095;28;20496;-70
2021/03/19 11:21:03;;;;;;;4.70;2.87;;;7.90;91.20;;;;;;4975783;28;20853;-70
2021/03/19 11:23:41;;;;;;;5.10;2.70;;;7.80;90.00;;;;;;4975493;28;20496;-69
2021/03/19 11:26:19;;;;;;;2.93;2.50;;;7.90;90.20;;;;;;4987081;28;20219;-69
2021/03/19 11:28:47;;;;;;;3.53;2.80;;;7.90;88.80;;;;;;5016006;28;20443;-70
2021/03/19 11:31:18;;;;;;;4.43;3.13;;;7.90;89.10;;;;;;5015924;28;20472;-70
2021/03/19 11:34:04;;;;;;;2.70;2.50;;;8.10;89.30;;;;;;5014957;28;20501;-70
2021/03/19 11:36:57;;;;;;;3.20;2.90;;;8.20;88.90;;;;;;5016039;28;20889;-71
2021/03/19 11:39:57;;;;;;;3.30;3.10;;;8.30;89.20;;;;;;5016351;28;20445;-70
2021/03/19 11:42:29;;;;;;;3.23;2.93;;;8.60;89.80;;;;;;4975201;28;20531;-70
2021/03/19 11:45:25;;;;;;;3.77;3.43;;;8.60;89.10;;;;;;4974857;28;20418;-70
2021/03/19 11:47:57;;;;;;;2.73;2.53;;;8.60;88.70;;;;;;4898453;29;20419;-69
2021/03/19 11:50:22;;;;;;;2.53;2.40;;;8.40;87.30;;;;;;4898314;29;20598;-70
2021/03/19 11:52:57;;;;;;;2.60;2.40;;;8.30;87.30;;;;;;4898985;29;20495;-71
2021/03/19 11:55:45;;;;;;;2.70;2.50;;;8.20;87.00;;;;;;4898501;29;20257;-70
2021/03/19 11:58:13;;;;;;;2.03;1.93;;;8.10;86.00;;;;;;4897899;29;20424;-71
2021/03/19 12:00:40;;;;;;;2.10;1.90;;;7.90;84.50;;;;;;4898518;29;20794;-70
2021/03/19 12:03:13;;;;;;;2.10;2.00;;;7.70;84.60;;;;;;4898870;29;20422;-70
2021/03/19 12:05:39;;;;;;;3.20;2.50;;;7.60;85.80;;;;;;4898373;29;20424;-70
2021/03/19 12:08:05;;;;;;;2.67;2.47;;;7.70;86.60;;;;;;4898277;29;20442;-70
2021/03/19 12:10:31;;;;;;;2.27;1.93;;;8.00;87.00;;;;;;4898560;29;20209;-70
2021/03/19 12:13:00;;;;;;;1.97;1.87;;;8.10;85.90;;;;;;4898587;29;20420;-70
2021/03/19 12:15:28;;;;;;;2.50;1.97;;;8.20;84.20;;;;;;4898623;29;20175;-70
2021/03/19 12:17:54;;;;;;;2.30;1.60;;;8.00;82.00;;;;;;4901650;29;20556;-70
2021/03/19 12:20:20;;;;;;;1.60;1.50;;;7.90;82.00;;;;;;4916848;29;20891;-70
2021/03/19 12:22:46;;;;;;;2.63;1.70;;;8.00;82.90;;;;;;4901009;29;20183;-70
2021/03/19 12:25:19;;;;;;;2.23;2.03;;;8.00;82.30;;;;;;5002227;28;20474;-70
2021/03/19 12:27:46;;;;;;;2.47;2.27;;;8.20;82.30;;;;;;5015774;28;20552;-70
2021/03/19 12:30:11;;;;;;;2.43;2.07;;;8.50;82.50;;;;;;5013974;28;20488;-70
2021/03/19 12:32:37;;;;;;;1.83;1.73;;;8.60;81.80;;;;;;5013644;28;20522;-70
2021/03/19 12:35:04;;;;;;;2.47;2.27;;;8.50;80.40;;;;;;5015747;28;20408;-71
2021/03/19 12:37:29;;;;;;;6.77;2.10;;;8.60;80.60;;;;;;5016154;28;20174;-70
2021/03/19 12:39:55;;;;;;;2.60;1.77;;;8.60;80.70;;;;;;5015824;28;20435;-71
2021/03/19 12:42:20;;;;;;;2.17;1.60;;;8.60;79.40;;;;;;5016312;28;20202;-70
2021/03/19 12:44:46;;;;;;;1.70;1.40;;;8.50;78.80;;;;;;5016669;28;20181;-70
2021/03/19 12:47:12;;;;;;;2.00;1.60;;;8.40;78.60;;;;;;5016197;28;20179;-70
2021/03/19 12:49:37;;;;;;;2.30;1.70;;;8.10;78.40;;;;;;5015200;28;20188;-70
2021/03/19 12:52:03;;;;;;;2.30;1.70;;;7.90;80.20;;;;;;5015074;28;20229;-70
2021/03/19 12:54:28;;;;;;;1.73;1.60;;;7.90;80.80;;;;;;5015211;28;20954;-70
2021/03/19 12:56:54;;;;;;;1.63;1.53;;;7.90;79.30;;;;;;5019606;28;20195;-70
2021/03/19 12:59:19;;;;;;;1.47;1.37;;;7.70;77.70;;;;;;5023220;28;20183;-70
2021/03/19 13:01:45;;;;;;;2.20;1.60;;;7.60;77.40;;;;;;5027181;28;20412;-69
2021/03/19 13:04:11;;;;;;;1.57;1.47;;;7.70;79.80;;;;;;5026235;28;20175;-69
2021/03/19 13:06:37;;;;;;;2.03;1.53;;;7.80;82.10;;;;;;5031663;28;20163;-70
2021/03/19 13:09:03;;;;;;;1.50;1.40;;;8.10;81.30;;;;;;5017338;28;20519;-69
2021/03/19 13:11:29;;;;;;;2.20;1.77;;;8.30;83.00;;;;;;4998889;28;20464;-71
2021/03/19 13:13:54;;;;;;;1.80;1.70;;;8.50;78.30;;;;;;5007507;28;20190;-70
2021/03/19 13:16:20;;;;;;;1.73;1.60;;;8.50;76.40;;;;;;5019995;28;20189;-70
2021/03/19 13:18:45;;;;;;;1.87;1.77;;;8.70;77.50;;;;;;5018914;28;20194;-71
2021/03/19 13:21:11;;;;;;;1.47;1.20;;;8.80;76.60;;;;;;5012314;28;20202;-71